Time;durP1;ratioP1;P1;durP2;ratioP2;P2;SDS_P1;SDS_P2;PMS_P1;PMS_P2;Temp;Humidity;BMP_temperature;BMP_pressure;BME280_temperature;BME280_humidity;BME280_pressure;Samples;Min_cycle;Max_cycle;Signal;HPM_P1;HPM_P2
2022/08/21 00:02:19;;;;;;;1.08;0.98;;;16.30;99.90;;;;;;5035574;28;20176;-58
2022/08/21 00:04:45;;;;;;;0.50;0.50;;;16.20;99.90;;;;;;5036675;28;20215;-59
2022/08/21 00:07:11;;;;;;;1.42;0.80;;;16.20;99.90;;;;;;5036618;28;20653;-58
2022/08/21 00:09:38;;;;;;;1.50;0.70;;;16.10;99.90;;;;;;5018975;28;20187;-57
2022/08/21 00:12:04;;;;;;;0.73;0.73;;;16.00;99.90;;;;;;5036601;28;20168;-58
2022/08/21 00:14:29;;;;;;;0.77;0.77;;;16.00;99.90;;;;;;5036627;28;20565;-58
2022/08/21 00:16:55;;;;;;;1.85;0.68;;;16.00;99.90;;;;;;5035411;28;20172;-58
2022/08/21 00:19:24;;;;;;;0.60;0.60;;;16.00;99.90;;;;;;5036387;28;20711;-59
2022/08/21 00:21:51;;;;;;;0.70;0.60;;;16.00;99.90;;;;;;5036371;28;20641;-58
2022/08/21 00:24:17;;;;;;;1.20;0.65;;;15.90;99.90;;;;;;5034975;28;20202;-58
2022/08/21 00:26:43;;;;;;;0.55;0.55;;;15.80;99.90;;;;;;5036584;28;20187;-58
2022/08/21 00:29:09;;;;;;;0.80;0.68;;;15.80;99.90;;;;;;5036208;28;20191;-58
2022/08/21 00:31:35;;;;;;;0.60;0.60;;;15.80;99.90;;;;;;5036412;28;20695;-57
2022/08/21 00:34:01;;;;;;;0.60;0.60;;;15.60;99.90;;;;;;5036198;28;20180;-57
2022/08/21 00:36:28;;;;;;;0.68;0.68;;;15.50;99.90;;;;;;5036040;28;20168;-57
2022/08/21 00:38:53;;;;;;;0.40;0.40;;;15.50;99.90;;;;;;5036335;28;20263;-57
2022/08/21 00:41:19;;;;;;;0.60;0.60;;;15.60;99.90;;;;;;5036030;28;20259;-59
2022/08/21 00:43:45;;;;;;;0.75;0.60;;;15.60;99.90;;;;;;5034980;28;20172;-58
2022/08/21 00:46:10;;;;;;;0.60;0.60;;;15.60;99.90;;;;;;5034665;28;20246;-58
2022/08/21 00:48:36;;;;;;;0.75;0.73;;;15.60;99.90;;;;;;5035896;28;20270;-57
2022/08/21 00:51:13;;;;;;;0.52;0.50;;;15.60;99.90;;;;;;5035601;28;20645;-57
2022/08/21 00:53:43;;;;;;;0.47;0.45;;;15.70;99.90;;;;;;5035275;28;20180;-57
2022/08/21 00:56:10;;;;;;;0.35;0.35;;;15.70;99.90;;;;;;5035617;28;20214;-58
2022/08/21 00:58:38;;;;;;;0.45;0.45;;;15.70;99.90;;;;;;5035746;28;20179;-58
2022/08/21 01:01:06;;;;;;;1.08;0.70;;;15.70;99.90;;;;;;5035741;28;20175;-58
2022/08/21 01:03:33;;;;;;;0.90;0.70;;;15.70;99.90;;;;;;5035632;28;20489;-58
2022/08/21 01:05:59;;;;;;;0.65;0.52;;;15.70;99.90;;;;;;5035045;28;20207;-58
2022/08/21 01:08:25;;;;;;;0.82;0.60;;;15.60;99.90;;;;;;5035690;28;20199;-57
2022/08/21 01:10:52;;;;;;;0.45;0.45;;;15.60;99.90;;;;;;5035646;28;20184;-58
2022/08/21 01:13:20;;;;;;;0.70;0.70;;;15.70;99.90;;;;;;5035433;28;20722;-58
2022/08/21 01:15:49;;;;;;;0.73;0.50;;;15.70;99.90;;;;;;5035410;28;20188;-58
2022/08/21 01:18:18;;;;;;;1.33;0.77;;;15.60;99.90;;;;;;5035296;28;20179;-58
2022/08/21 01:21:00;;;;;;;0.75;0.70;;;15.60;99.90;;;;;;5035408;28;20179;-58
2022/08/21 01:23:26;;;;;;;1.00;0.57;;;15.60;99.90;;;;;;5035329;28;20195;-57
2022/08/21 01:25:51;;;;;;;1.38;0.40;;;15.50;99.90;;;;;;5017572;28;20243;-57
2022/08/21 01:28:19;;;;;;;1.20;0.57;;;15.50;99.90;;;;;;5033885;28;20196;-58
2022/08/21 01:30:44;;;;;;;0.60;0.60;;;15.50;99.90;;;;;;5033919;28;20211;-58
2022/08/21 01:33:11;;;;;;;0.55;0.55;;;15.50;99.90;;;;;;5033751;28;20180;-57
2022/08/21 01:35:37;;;;;;;0.68;0.60;;;15.40;99.90;;;;;;5034267;28;20176;-57
2022/08/21 01:38:03;;;;;;;0.47;0.45;;;15.40;99.90;;;;;;5034993;28;20175;-57
2022/08/21 01:40:29;;;;;;;0.63;0.63;;;15.30;99.90;;;;;;5035066;28;20697;-58
2022/08/21 01:42:54;;;;;;;0.40;0.40;;;15.30;99.90;;;;;;5017230;28;20196;-58
2022/08/21 01:45:20;;;;;;;0.45;0.40;;;15.20;99.90;;;;;;5034727;28;20211;-57
2022/08/21 01:47:46;;;;;;;0.68;0.55;;;15.20;99.90;;;;;;5035008;28;20245;-58
2022/08/21 01:50:14;;;;;;;0.77;0.65;;;15.20;99.90;;;;;;5033662;28;20602;-58
2022/08/21 01:52:40;;;;;;;1.83;0.70;;;15.20;99.90;;;;;;5034864;28;20168;-58
2022/08/21 01:55:08;;;;;;;0.47;0.47;;;15.20;99.90;;;;;;5033581;28;20187;-58
2022/08/21 01:57:33;;;;;;;0.40;0.40;;;15.20;99.90;;;;;;5033209;28;20191;-58
2022/08/21 01:59:59;;;;;;;0.85;0.70;;;15.20;99.90;;;;;;5034398;28;20168;-58
2022/08/21 02:02:25;;;;;;;1.17;0.88;;;15.20;99.90;;;;;;5033053;28;20711;-57
2022/08/21 02:04:51;;;;;;;0.80;0.68;;;15.20;99.90;;;;;;5016633;28;20684;-57
2022/08/21 02:07:18;;;;;;;0.50;0.50;;;15.20;99.90;;;;;;5034363;28;20271;-57
2022/08/21 02:09:44;;;;;;;0.52;0.52;;;15.20;99.90;;;;;;5034438;28;20172;-58
2022/08/21 02:12:11;;;;;;;0.38;0.35;;;15.20;99.90;;;;;;5034577;28;20255;-58
2022/08/21 02:14:36;;;;;;;0.40;0.40;;;15.20;99.90;;;;;;5034293;28;20681;-57
2022/08/21 02:17:03;;;;;;;1.20;0.70;;;15.10;99.90;;;;;;5032502;28;20179;-58
2022/08/21 02:19:29;;;;;;;0.90;0.80;;;15.10;99.90;;;;;;5034222;28;20572;-58
2022/08/21 02:21:54;;;;;;;0.55;0.52;;;15.00;99.90;;;;;;5034393;28;20164;-58
2022/08/21 02:24:20;;;;;;;0.70;0.70;;;15.10;99.90;;;;;;5034156;28;20209;-58
2022/08/21 02:26:46;;;;;;;0.52;0.52;;;15.10;99.90;;;;;;5034017;28;20191;-57
2022/08/21 02:29:12;;;;;;;1.05;0.80;;;15.00;99.90;;;;;;5032651;28;20206;-58
2022/08/21 02:31:38;;;;;;;0.82;0.70;;;15.00;99.90;;;;;;5034117;28;20180;-58
2022/08/21 02:34:04;;;;;;;0.70;0.50;;;15.00;99.90;;;;;;5034157;28;20183;-58
2022/08/21 02:36:30;;;;;;;0.75;0.52;;;15.00;99.90;;;;;;5033950;28;20175;-58
2022/08/21 02:38:56;;;;;;;0.50;0.50;;;15.00;99.90;;;;;;5033979;28;20172;-58
2022/08/21 02:41:22;;;;;;;0.95;0.85;;;15.00;99.90;;;;;;5033847;28;20168;-58
2022/08/21 02:43:48;;;;;;;0.63;0.63;;;15.00;99.90;;;;;;5033850;28;20644;-57
2022/08/21 02:46:16;;;;;;;0.60;0.60;;;15.00;99.90;;;;;;5033843;28;20212;-58
2022/08/21 02:48:42;;;;;;;0.60;0.60;;;15.00;99.90;;;;;;5033817;28;20168;-57
2022/08/21 02:51:15;;;;;;;0.52;0.50;;;15.00;99.90;;;;;;5033766;28;20649;-58
2022/08/21 02:53:41;;;;;;;0.60;0.60;;;15.00;99.90;;;;;;5033731;28;20290;-58
2022/08/21 02:56:10;;;;;;;0.57;0.57;;;14.90;99.90;;;;;;5033612;28;20176;-57
2022/08/21 02:58:40;;;;;;;0.43;0.43;;;15.00;99.90;;;;;;5033734;28;20651;-58
2022/08/21 03:01:09;;;;;;;0.50;0.50;;;15.00;99.90;;;;;;5033697;28;20224;-58
2022/08/21 03:03:40;;;;;;;0.45;0.45;;;14.90;99.90;;;;;;5032351;28;20671;-58
2022/08/21 03:06:08;;;;;;;0.50;0.50;;;14.90;99.90;;;;;;5033558;28;20214;-58
2022/08/21 03:08:34;;;;;;;0.57;0.52;;;14.90;99.90;;;;;;5033116;28;20667;-58
2022/08/21 03:11:00;;;;;;;0.93;0.50;;;14.90;99.90;;;;;;5033263;28;20180;-58
2022/08/21 03:13:27;;;;;;;0.85;0.55;;;14.90;99.90;;;;;;5033637;28;20187;-58
2022/08/21 03:15:53;;;;;;;1.20;0.70;;;14.90;99.90;;;;;;5033437;28;20172;-57
2022/08/21 03:18:19;;;;;;;1.13;0.63;;;15.00;99.90;;;;;;5032364;28;20537;-58
2022/08/21 03:20:46;;;;;;;0.57;0.57;;;14.90;99.90;;;;;;5033403;28;20176;-59
2022/08/21 03:23:12;;;;;;;0.70;0.60;;;14.90;99.90;;;;;;5032034;28;20221;-58
2022/08/21 03:25:38;;;;;;;0.90;0.43;;;14.90;99.90;;;;;;5031956;28;20215;-58
2022/08/21 03:28:07;;;;;;;0.60;0.60;;;15.00;99.90;;;;;;5033251;28;20518;-57
2022/08/21 03:30:32;;;;;;;0.50;0.50;;;14.90;99.90;;;;;;5039722;28;20168;-58
2022/08/21 03:32:59;;;;;;;0.75;0.75;;;14.90;99.90;;;;;;5039905;28;20172;-58
2022/08/21 03:35:26;;;;;;;0.85;0.40;;;14.90;99.90;;;;;;5039836;28;20234;-58
2022/08/21 03:37:52;;;;;;;1.27;0.90;;;14.90;99.90;;;;;;5039743;28;20178;-58
2022/08/21 03:40:20;;;;;;;1.02;0.60;;;14.90;99.90;;;;;;5039850;28;20172;-58
2022/08/21 03:42:46;;;;;;;0.80;0.50;;;14.80;99.90;;;;;;5039900;28;20267;-57
2022/08/21 03:45:14;;;;;;;1.15;0.85;;;14.80;99.90;;;;;;5039575;28;20599;-57
2022/08/21 03:47:51;;;;;;;0.85;0.65;;;14.80;99.90;;;;;;5039956;28;20172;-58
2022/08/21 03:50:17;;;;;;;0.82;0.65;;;14.80;99.90;;;;;;5039566;28;20163;-58
2022/08/21 03:52:43;;;;;;;0.73;0.52;;;14.70;99.90;;;;;;5039810;28;20621;-58
2022/08/21 03:55:08;;;;;;;0.40;0.40;;;14.70;99.90;;;;;;5039844;28;20683;-58
2022/08/21 03:57:34;;;;;;;0.60;0.60;;;14.70;99.90;;;;;;5039684;28;20183;-58
2022/08/21 04:00:00;;;;;;;0.40;0.40;;;14.70;99.90;;;;;;5038729;28;20198;-57
2022/08/21 04:02:25;;;;;;;0.70;0.60;;;14.80;99.90;;;;;;5039461;28;20184;-57
2022/08/21 04:04:51;;;;;;;0.75;0.50;;;14.70;99.90;;;;;;5039388;28;20204;-57
2022/08/21 04:07:17;;;;;;;1.00;0.45;;;14.70;99.90;;;;;;5039747;28;20179;-58
2022/08/21 04:09:43;;;;;;;0.35;0.35;;;14.70;99.90;;;;;;5039336;28;20190;-58
2022/08/21 04:12:09;;;;;;;1.00;0.70;;;14.70;99.90;;;;;;5039481;28;20176;-58
2022/08/21 04:14:34;;;;;;;0.75;0.50;;;14.70;99.90;;;;;;5038121;28;20637;-58
2022/08/21 04:17:00;;;;;;;0.70;0.70;;;14.70;99.90;;;;;;5039404;28;20210;-57
2022/08/21 04:19:26;;;;;;;0.65;0.60;;;14.70;99.90;;;;;;5039288;28;20693;-57
2022/08/21 04:21:51;;;;;;;0.63;0.60;;;14.70;99.90;;;;;;5039911;28;20184;-58
2022/08/21 04:24:19;;;;;;;0.73;0.65;;;14.70;99.90;;;;;;5039444;28;20175;-58
2022/08/21 04:26:44;;;;;;;1.92;0.90;;;14.60;99.90;;;;;;5039393;28;20207;-59
2022/08/21 04:29:11;;;;;;;0.60;0.40;;;14.60;99.90;;;;;;5039217;28;20223;-58
2022/08/21 04:31:37;;;;;;;0.80;0.52;;;14.60;99.90;;;;;;5038021;28;20176;-57
2022/08/21 04:34:04;;;;;;;0.60;0.60;;;14.60;99.90;;;;;;5039059;28;20183;-58
2022/08/21 04:36:31;;;;;;;0.82;0.70;;;14.70;99.90;;;;;;5039404;28;20180;-57
2022/08/21 04:38:56;;;;;;;2.20;0.63;;;14.70;99.90;;;;;;5039415;28;20172;-58
2022/08/21 04:41:22;;;;;;;0.65;0.50;;;14.60;99.90;;;;;;5036021;28;20222;-57
2022/08/21 04:43:48;;;;;;;0.40;0.40;;;14.60;99.90;;;;;;5036169;28;20176;-58
2022/08/21 04:46:13;;;;;;;0.52;0.52;;;14.50;99.90;;;;;;5035918;28;20661;-58
2022/08/21 04:48:40;;;;;;;1.15;0.80;;;14.60;99.90;;;;;;5034776;28;20572;-58
2022/08/21 04:51:28;;;;;;;0.68;0.57;;;14.70;99.90;;;;;;5036106;28;20202;-58
2022/08/21 04:54:18;;;;;;;0.60;0.60;;;14.70;99.90;;;;;;5035862;28;20183;-58
2022/08/21 04:56:50;;;;;;;0.40;0.40;;;14.70;99.90;;;;;;5035865;28;20553;-58
2022/08/21 04:59:21;;;;;;;0.57;0.47;;;14.70;99.90;;;;;;5036165;28;20172;-59
2022/08/21 05:01:47;;;;;;;0.40;0.40;;;14.80;99.90;;;;;;5035803;28;20214;-59
2022/08/21 05:04:16;;;;;;;0.40;0.40;;;14.80;99.90;;;;;;5035682;28;20241;-57
2022/08/21 05:06:46;;;;;;;0.90;0.80;;;14.80;99.90;;;;;;5035598;28;20526;-58
2022/08/21 05:09:15;;;;;;;1.17;0.80;;;14.80;99.90;;;;;;5035557;28;20192;-57
2022/08/21 05:11:42;;;;;;;0.60;0.60;;;14.90;99.90;;;;;;5035484;28;20172;-58
2022/08/21 05:14:09;;;;;;;0.73;0.68;;;14.90;99.90;;;;;;5034560;28;20176;-58
2022/08/21 05:16:35;;;;;;;0.60;0.60;;;14.90;99.90;;;;;;5035581;28;20208;-58
2022/08/21 05:19:01;;;;;;;0.57;0.52;;;14.90;99.90;;;;;;5035429;28;20183;-58
2022/08/21 05:21:26;;;;;;;0.70;0.63;;;15.00;99.90;;;;;;5035545;28;20176;-58
2022/08/21 05:23:52;;;;;;;0.45;0.40;;;15.00;99.90;;;;;;5035313;28;20180;-58
2022/08/21 05:26:18;;;;;;;0.60;0.57;;;15.00;99.90;;;;;;5035098;28;20207;-58
2022/08/21 05:28:43;;;;;;;0.40;0.35;;;15.10;99.90;;;;;;5035013;28;20226;-58
2022/08/21 05:31:09;;;;;;;0.95;0.50;;;15.10;99.90;;;;;;5035566;28;20621;-58
2022/08/21 05:33:34;;;;;;;0.80;0.80;;;15.20;99.90;;;;;;5034944;28;20724;-58
2022/08/21 05:36:00;;;;;;;0.77;0.40;;;15.20;99.90;;;;;;5033927;28;20180;-58
2022/08/21 05:38:28;;;;;;;1.30;0.70;;;15.30;99.90;;;;;;5034864;28;20187;-58
2022/08/21 05:40:54;;;;;;;0.60;0.60;;;15.40;99.90;;;;;;5034839;28;20533;-58
2022/08/21 05:43:20;;;;;;;1.30;0.65;;;15.40;99.90;;;;;;5035270;28;20168;-58
2022/08/21 05:45:47;;;;;;;0.50;0.40;;;15.40;99.90;;;;;;5034664;28;20243;-58
2022/08/21 05:48:14;;;;;;;1.33;1.08;;;15.50;99.90;;;;;;5034761;28;20180;-58
2022/08/21 05:50:42;;;;;;;1.85;0.68;;;15.70;99.90;;;;;;5033328;28;20172;-58
2022/08/21 05:53:09;;;;;;;1.23;0.70;;;15.70;99.90;;;;;;5029453;28;20176;-58
2022/08/21 05:55:36;;;;;;;0.40;0.40;;;15.90;99.90;;;;;;5033426;28;20184;-58
2022/08/21 05:58:03;;;;;;;1.85;0.50;;;15.90;99.90;;;;;;5034624;28;20581;-58
2022/08/21 06:00:28;;;;;;;0.40;0.35;;;16.00;99.90;;;;;;5033472;28;20272;-58
2022/08/21 06:02:54;;;;;;;0.57;0.40;;;16.10;99.90;;;;;;5034197;28;20199;-58
2022/08/21 06:05:20;;;;;;;0.40;0.40;;;16.30;99.90;;;;;;5034216;28;20230;-59
2022/08/21 06:07:46;;;;;;;1.75;0.50;;;16.40;99.90;;;;;;5031867;28;20709;-58
2022/08/21 06:10:11;;;;;;;0.50;0.50;;;16.50;99.90;;;;;;5013351;28;20219;-58
2022/08/21 06:12:37;;;;;;;1.10;0.50;;;16.70;99.90;;;;;;5013324;28;20173;-58
2022/08/21 06:15:03;;;;;;;1.60;0.50;;;16.90;99.90;;;;;;5014290;28;20172;-58
2022/08/21 06:17:29;;;;;;;1.10;0.60;;;17.10;99.90;;;;;;5015580;28;20280;-58
2022/08/21 06:19:55;;;;;;;1.95;0.60;;;17.20;99.90;;;;;;5014280;28;20256;-58
2022/08/21 06:22:21;;;;;;;0.50;0.43;;;17.50;99.90;;;;;;5036317;28;20187;-58
2022/08/21 06:24:48;;;;;;;1.35;0.22;;;17.50;99.90;;;;;;5054074;28;20211;-58
2022/08/21 06:27:15;;;;;;;0.75;0.60;;;17.40;99.90;;;;;;5052747;28;20264;-58
2022/08/21 06:29:41;;;;;;;0.95;0.68;;;17.50;99.90;;;;;;5053945;28;20698;-58
2022/08/21 06:32:10;;;;;;;1.02;0.63;;;17.60;99.90;;;;;;5053744;28;20209;-58
2022/08/21 06:34:37;;;;;;;1.08;0.40;;;17.70;99.90;;;;;;5053340;28;20178;-58
2022/08/21 06:37:04;;;;;;;1.05;0.40;;;18.00;99.90;;;;;;5051928;28;20184;-58
2022/08/21 06:39:30;;;;;;;0.93;0.47;;;18.10;99.90;;;;;;5050322;28;20709;-57
2022/08/21 06:41:56;;;;;;;1.00;0.50;;;18.10;99.90;;;;;;5035161;28;20254;-58
2022/08/21 06:44:21;;;;;;;0.55;0.50;;;18.30;99.90;;;;;;5053598;28;20612;-58
2022/08/21 06:46:48;;;;;;;1.48;0.63;;;18.30;99.90;;;;;;5052277;28;20187;-58
2022/08/21 06:49:13;;;;;;;2.55;1.05;;;18.30;99.90;;;;;;5053252;28;20587;-58
2022/08/21 06:51:40;;;;;;;0.85;0.50;;;18.50;99.90;;;;;;5053756;28;20214;-58
2022/08/21 06:54:06;;;;;;;0.40;0.40;;;18.40;99.90;;;;;;5053511;28;20236;-57
2022/08/21 06:56:33;;;;;;;0.60;0.60;;;18.50;99.90;;;;;;5053240;28;20182;-58
2022/08/21 06:58:58;;;;;;;1.23;0.60;;;18.50;99.90;;;;;;5053324;28;20186;-58
2022/08/21 07:01:25;;;;;;;2.58;0.55;;;18.70;99.90;;;;;;5053317;28;20179;-58
2022/08/21 07:03:51;;;;;;;0.60;0.60;;;18.70;99.90;;;;;;5045261;28;20599;-58
2022/08/21 07:06:17;;;;;;;0.50;0.50;;;18.70;99.90;;;;;;5033123;28;20204;-58
2022/08/21 07:08:44;;;;;;;0.82;0.50;;;18.70;99.90;;;;;;5033492;28;20182;-58
2022/08/21 07:11:18;;;;;;;1.27;0.52;;;18.90;99.90;;;;;;5032114;28;20259;-58
2022/08/21 07:13:44;;;;;;;0.52;0.50;;;18.90;99.90;;;;;;5033275;28;20180;-59
2022/08/21 07:16:10;;;;;;;0.60;0.60;;;19.00;99.90;;;;;;5033354;28;20522;-58
2022/08/21 07:18:36;;;;;;;0.75;0.60;;;19.10;99.90;;;;;;5033238;28;20176;-59
2022/08/21 07:21:04;;;;;;;1.05;0.55;;;19.30;99.90;;;;;;5033444;28;20262;-58
2022/08/21 07:23:37;;;;;;;0.75;0.70;;;19.30;99.90;;;;;;5051194;28;20262;-58
2022/08/21 07:26:03;;;;;;;0.65;0.65;;;19.30;99.90;;;;;;5052789;28;20294;-58
2022/08/21 07:28:30;;;;;;;0.73;0.70;;;19.50;99.90;;;;;;5053057;28;20226;-58
2022/08/21 07:30:57;;;;;;;1.08;0.63;;;19.60;99.90;;;;;;5052819;28;20221;-58
2022/08/21 07:33:23;;;;;;;2.25;0.60;;;19.90;99.90;;;;;;5051287;28;20213;-58
2022/08/21 07:35:49;;;;;;;0.52;0.50;;;20.00;99.90;;;;;;5033227;28;20191;-58
2022/08/21 07:38:15;;;;;;;0.90;0.60;;;19.90;99.90;;;;;;5033118;28;20560;-58
2022/08/21 07:40:41;;;;;;;1.35;0.70;;;20.10;99.90;;;;;;5032008;28;20180;-58
2022/08/21 07:43:06;;;;;;;0.60;0.55;;;20.40;99.90;;;;;;5033028;28;20264;-58
2022/08/21 07:45:32;;;;;;;0.75;0.50;;;20.50;99.90;;;;;;5031533;28;20748;-58
2022/08/21 07:47:58;;;;;;;0.75;0.60;;;20.50;99.90;;;;;;5032951;28;20176;-58
2022/08/21 07:50:24;;;;;;;0.90;0.60;;;20.60;99.90;;;;;;5033280;28;20219;-58
2022/08/21 07:52:50;;;;;;;1.42;0.70;;;20.60;99.90;;;;;;5043775;28;20179;-59
2022/08/21 07:55:18;;;;;;;0.98;0.70;;;20.50;99.90;;;;;;5052949;28;20176;-58
2022/08/21 07:57:44;;;;;;;0.70;0.60;;;20.70;99.90;;;;;;5052823;28;20536;-59
2022/08/21 08:00:19;;;;;;;0.55;0.30;;;20.90;99.90;;;;;;5052713;28;20183;-59
2022/08/21 08:02:49;;;;;;;1.08;0.60;;;20.80;99.90;;;;;;5033407;28;20175;-58
2022/08/21 08:05:15;;;;;;;0.65;0.60;;;21.10;99.90;;;;;;5030771;28;20273;-59
2022/08/21 08:07:41;;;;;;;0.70;0.60;;;21.40;99.90;;;;;;5032735;28;20180;-58
2022/08/21 08:10:08;;;;;;;0.50;0.45;;;21.30;99.90;;;;;;5032773;28;20187;-58
2022/08/21 08:12:35;;;;;;;1.48;0.40;;;21.20;99.90;;;;;;5032565;28;20179;-58
2022/08/21 08:15:03;;;;;;;0.30;0.30;;;21.10;99.90;;;;;;5032798;28;20180;-59
2022/08/21 08:17:29;;;;;;;1.17;0.60;;;21.00;99.90;;;;;;5035919;28;20176;-58
2022/08/21 08:19:55;;;;;;;1.50;0.52;;;21.20;99.90;;;;;;5036567;28;20186;-59
2022/08/21 08:22:23;;;;;;;3.30;0.50;;;21.40;99.90;;;;;;5036520;28;20180;-58
2022/08/21 08:24:50;;;;;;;1.23;0.55;;;21.60;99.90;;;;;;5036263;28;20204;-59
2022/08/21 08:27:17;;;;;;;0.80;0.55;;;21.60;99.90;;;;;;5036253;28;20245;-58
2022/08/21 08:29:43;;;;;;;0.70;0.70;;;21.80;99.90;;;;;;5034841;28;20188;-57
2022/08/21 08:32:09;;;;;;;0.40;0.40;;;21.90;99.90;;;;;;5036460;28;20172;-57
2022/08/21 08:34:36;;;;;;;2.20;0.80;;;22.00;99.90;;;;;;5036338;28;20525;-58
2022/08/21 08:37:03;;;;;;;0.40;0.40;;;21.90;99.90;;;;;;5036000;28;20588;-58
2022/08/21 08:39:28;;;;;;;0.75;0.60;;;21.80;99.90;;;;;;5034882;28;20576;-60
2022/08/21 08:42:05;;;;;;;0.47;0.47;;;21.80;99.90;;;;;;5036024;28;20172;-57
2022/08/21 08:44:31;;;;;;;2.15;0.40;;;22.10;99.90;;;;;;5036391;28;20180;-57
2022/08/21 08:46:57;;;;;;;0.47;0.40;;;22.00;99.90;;;;;;5035951;28;20203;-54
2022/08/21 08:49:39;;;;;;;1.52;0.52;;;22.20;99.90;;;;;;5036066;28;20168;-58
2022/08/21 08:52:39;;;;;;;1.30;0.57;;;22.50;99.90;;;;;;5035998;28;20210;-57
2022/08/21 08:55:12;;;;;;;0.68;0.50;;;22.60;99.90;;;;;;5035817;28;20284;-58
2022/08/21 08:57:42;;;;;;;0.40;0.40;;;22.60;99.90;;;;;;5035712;28;20258;-58
2022/08/21 09:00:12;;;;;;;1.17;0.52;;;22.60;99.90;;;;;;5035839;28;20172;-58
2022/08/21 09:02:43;;;;;;;1.48;0.57;;;22.80;99.90;;;;;;5035495;28;20182;-58
2022/08/21 09:05:23;;;;;;;0.68;0.38;;;22.70;99.90;;;;;;5036010;28;20208;-58
2022/08/21 09:08:15;;;;;;;0.40;0.40;;;22.40;99.90;;;;;;5035640;28;20525;-58
2022/08/21 09:11:07;;;;;;;0.50;0.50;;;22.70;99.90;;;;;;5035897;28;20176;-57
2022/08/21 09:14:03;;;;;;;2.00;0.50;;;22.80;99.90;;;;;;5036015;28;20176;-58
2022/08/21 09:17:07;;;;;;;0.43;0.43;;;23.10;99.90;;;;;;5035633;28;20629;-58
2022/08/21 09:19:51;;;;;;;0.65;0.50;;;23.00;99.90;;;;;;4996926;28;20234;-58
2022/08/21 09:22:58;;;;;;;0.57;0.57;;;22.90;99.90;;;;;;5033410;28;20329;-58
2022/08/21 09:25:32;;;;;;;1.38;0.47;;;22.90;99.90;;;;;;5035249;28;20204;-57
2022/08/21 09:27:58;;;;;;;1.52;0.60;;;23.10;99.90;;;;;;5034572;28;20226;-58
2022/08/21 09:30:28;;;;;;;0.93;0.52;;;22.90;99.90;;;;;;5035295;28;20176;-58
2022/08/21 09:32:54;;;;;;;0.95;0.40;;;22.90;99.90;;;;;;5035266;28;20254;-57
2022/08/21 09:35:22;;;;;;;0.95;0.40;;;22.60;99.90;;;;;;5035178;28;20263;-58
2022/08/21 09:37:53;;;;;;;0.50;0.50;;;22.50;99.90;;;;;;5035096;28;20186;-59
2022/08/21 09:40:24;;;;;;;0.52;0.40;;;22.40;99.90;;;;;;5034835;28;20210;-58
2022/08/21 09:43:25;;;;;;;1.70;0.30;;;22.60;99.90;;;;;;5035194;28;20175;-58
2022/08/21 09:46:04;;;;;;;0.70;0.43;;;23.00;99.90;;;;;;5023173;28;20227;-58
2022/08/21 09:48:37;;;;;;;0.50;0.50;;;22.80;99.90;;;;;;5034763;28;20183;-58
2022/08/21 09:51:10;;;;;;;0.63;0.60;;;22.70;99.90;;;;;;5035321;28;20211;-58
2022/08/21 09:53:42;;;;;;;0.70;0.50;;;22.50;99.90;;;;;;5034783;28;20625;-58
2022/08/21 09:59:18;;;;;;;2.15;0.77;;;22.50;99.90;;;;;;5035172;28;20261;-58
2022/08/21 10:01:48;;;;;;;0.75;0.50;;;22.40;99.90;;;;;;5034772;28;20175;-58
2022/08/21 10:04:15;;;;;;;0.90;0.63;;;22.40;99.90;;;;;;5033212;28;20169;-59
2022/08/21 10:06:40;;;;;;;1.10;0.68;;;22.40;99.90;;;;;;5034266;28;20294;-57
2022/08/21 10:09:19;;;;;;;0.55;0.50;;;22.60;99.90;;;;;;5034463;28;20272;-58
2022/08/21 10:12:04;;;;;;;4.03;0.60;;;22.90;99.90;;;;;;5034426;28;20506;-58
2022/08/21 10:14:54;;;;;;;1.55;0.47;;;23.20;99.90;;;;;;5033566;28;20724;-57
2022/08/21 10:17:28;;;;;;;1.75;0.65;;;23.10;99.90;;;;;;5034237;28;20182;-58
2022/08/21 10:20:00;;;;;;;0.88;0.57;;;23.10;99.90;;;;;;5034179;28;20656;-58
2022/08/21 10:22:50;;;;;;;0.50;0.50;;;23.20;99.90;;;;;;5034350;28;20176;-58
2022/08/21 10:25:25;;;;;;;0.73;0.50;;;23.20;99.90;;;;;;5034228;28;20204;-58
2022/08/21 10:28:07;;;;;;;1.13;1.05;;;23.40;99.90;;;;;;5033996;28;20257;-58
2022/08/21 10:30:48;;;;;;;0.43;0.30;;;23.40;99.90;;;;;;5034339;28;20183;-58
2022/08/21 10:33:37;;;;;;;0.60;0.55;;;24.00;99.90;;;;;;5033923;28;20565;-57
2022/08/21 10:36:13;;;;;;;0.70;0.30;;;24.10;99.90;;;;;;5034047;28;20179;-58
2022/08/21 10:38:41;;;;;;;0.70;0.50;;;23.90;99.90;;;;;;5033063;28;20214;-58
2022/08/21 10:41:41;;;;;;;0.80;0.52;;;23.80;99.90;;;;;;5034058;28;20171;-58
2022/08/21 10:44:38;;;;;;;1.38;0.50;;;24.00;99.90;;;;;;5032571;28;20207;-58
2022/08/21 10:47:05;;;;;;;0.30;0.30;;;23.80;99.90;;;;;;5023708;28;20594;-56
2022/08/21 10:49:39;;;;;;;0.73;0.60;;;23.70;99.90;;;;;;5033908;28;20172;-57
2022/08/21 10:52:08;;;;;;;1.00;0.70;;;23.70;99.90;;;;;;5033838;28;20214;-58
2022/08/21 10:54:58;;;;;;;1.13;0.60;;;23.80;99.90;;;;;;5033713;28;20653;-58
2022/08/21 10:57:46;;;;;;;1.20;0.50;;;24.10;99.90;;;;;;5033220;28;20192;-58
2022/08/21 11:00:24;;;;;;;0.50;0.50;;;24.30;99.90;;;;;;5033786;28;20191;-59
2022/08/21 11:03:08;;;;;;;0.75;0.45;;;24.30;99.90;;;;;;5033739;28;20172;-59
2022/08/21 11:05:47;;;;;;;0.93;0.55;;;24.60;99.90;;;;;;5033473;28;20202;-59
2022/08/21 11:08:18;;;;;;;1.52;0.35;;;24.90;99.90;;;;;;5033765;28;20514;-59
2022/08/21 11:11:13;;;;;;;0.82;0.30;;;25.10;99.90;;;;;;5033643;28;20183;-59
2022/08/21 11:13:42;;;;;;;1.52;0.47;;;24.90;99.90;;;;;;5030222;28;20188;-59
2022/08/21 11:16:22;;;;;;;1.08;0.47;;;24.70;99.90;;;;;;5033171;28;20211;-58
2022/08/21 11:19:20;;;;;;;0.68;0.40;;;24.70;99.80;;;;;;5033583;28;20225;-59
2022/08/21 11:22:07;;;;;;;1.30;0.60;;;24.60;99.90;;;;;;5033307;28;20622;-58
2022/08/21 11:24:46;;;;;;;1.35;0.80;;;24.50;99.40;;;;;;5033133;28;20203;-58
2022/08/21 11:27:24;;;;;;;0.82;0.63;;;24.60;99.90;;;;;;5033506;28;20580;-63
2022/08/21 11:29:56;;;;;;;1.00;0.90;;;24.70;99.50;;;;;;5033321;28;20623;-59
2022/08/21 11:32:29;;;;;;;1.70;0.50;;;24.70;99.80;;;;;;5033250;28;20187;-58
2022/08/21 11:35:18;;;;;;;0.38;0.38;;;25.10;99.70;;;;;;5033134;28;20195;-58
2022/08/21 11:37:53;;;;;;;0.90;0.90;;;25.30;98.80;;;;;;5033323;28;20716;-58
2022/08/21 11:40:52;;;;;;;1.20;0.60;;;25.60;98.70;;;;;;5033207;28;20184;-58
2022/08/21 11:43:35;;;;;;;0.35;0.35;;;26.00;99.00;;;;;;5033061;28;20168;-58
2022/08/21 11:46:11;;;;;;;0.60;0.60;;;25.90;98.50;;;;;;5033355;28;20203;-58
2022/08/21 11:49:10;;;;;;;1.48;0.73;;;25.70;97.90;;;;;;5033157;28;20186;-57
2022/08/21 11:51:59;;;;;;;0.88;0.50;;;25.40;97.40;;;;;;5036658;28;20183;-58
2022/08/21 11:54:37;;;;;;;0.80;0.80;;;25.40;98.20;;;;;;5037028;28;20693;-57
2022/08/21 11:57:21;;;;;;;1.15;0.30;;;25.40;97.30;;;;;;5037210;28;20171;-58
2022/08/21 12:00:00;;;;;;;0.82;0.68;;;25.20;97.40;;;;;;5036778;28;20180;-58
2022/08/21 12:02:33;;;;;;;0.55;0.55;;;25.40;97.80;;;;;;5037077;28;20234;-58
2022/08/21 12:05:06;;;;;;;0.40;0.40;;;25.50;98.30;;;;;;5036875;28;20226;-58
2022/08/21 12:07:36;;;;;;;0.73;0.43;;;25.50;97.10;;;;;;5036930;28;20202;-57
2022/08/21 12:10:05;;;;;;;1.23;0.60;;;25.30;97.10;;;;;;5036729;28;20176;-58
2022/08/21 12:12:34;;;;;;;1.10;0.35;;;25.10;97.70;;;;;;5036698;28;20176;-57
2022/08/21 12:15:17;;;;;;;2.30;0.50;;;25.10;98.30;;;;;;5036798;28;20203;-58
2022/08/21 12:18:03;;;;;;;0.63;0.50;;;25.40;98.10;;;;;;5036715;28;20175;-58
2022/08/21 12:20:58;;;;;;;0.50;0.50;;;25.30;96.60;;;;;;5036484;28;20759;-58
2022/08/21 12:24:16;;;;;;;0.47;0.40;;;25.10;97.20;;;;;;5036826;28;20216;-58
2022/08/21 12:26:55;;;;;;;2.13;0.60;;;24.90;97.40;;;;;;5036379;28;20231;-58
2022/08/21 12:29:33;;;;;;;1.25;0.47;;;24.70;97.10;;;;;;5036674;28;20543;-58
2022/08/21 12:32:25;;;;;;;0.80;0.65;;;24.50;98.30;;;;;;5036720;28;20176;-58
2022/08/21 12:35:02;;;;;;;0.70;0.57;;;24.10;98.20;;;;;;5036235;28;20176;-58
2022/08/21 12:37:42;;;;;;;0.82;0.50;;;24.00;98.80;;;;;;5036135;28;20207;-58
2022/08/21 12:40:27;;;;;;;1.15;0.60;;;23.90;98.90;;;;;;5036420;28;20179;-58
2022/08/21 12:42:57;;;;;;;0.88;0.50;;;23.90;99.40;;;;;;5036045;28;20180;-57
2022/08/21 12:45:30;;;;;;;0.70;0.50;;;24.00;99.40;;;;;;5036133;28;20687;-58
2022/08/21 12:48:14;;;;;;;0.70;0.47;;;24.20;98.80;;;;;;5035993;28;20660;-58
2022/08/21 12:50:56;;;;;;;1.90;0.50;;;24.20;98.70;;;;;;5036193;28;20176;-58
2022/08/21 12:53:40;;;;;;;0.60;0.60;;;24.10;98.40;;;;;;5034952;28;20533;-58
2022/08/21 12:56:11;;;;;;;0.40;0.40;;;24.10;98.60;;;;;;5035979;28;20195;-57
2022/08/21 12:58:41;;;;;;;0.60;0.40;;;23.90;99.00;;;;;;5035576;28;20256;-58
2022/08/21 13:01:16;;;;;;;0.40;0.40;;;23.80;99.00;;;;;;5035383;28;20234;-58
2022/08/21 13:03:42;;;;;;;0.50;0.50;;;23.70;99.20;;;;;;5035676;28;20171;-58
2022/08/21 13:06:16;;;;;;;1.75;0.60;;;23.60;99.90;;;;;;5035627;28;20561;-58
2022/08/21 13:08:44;;;;;;;0.70;0.47;;;23.70;99.90;;;;;;5034222;28;20675;-58
2022/08/21 13:11:12;;;;;;;1.75;0.40;;;23.90;99.40;;;;;;5024625;28;20180;-58